sensor_id;sensor_type;location;lat;lon;timestamp;P1;durP1;ratioP1;P2;durP2;ratioP2
422;SDS011;198;48.752;9.180;2023-08-12T00:00:48;4.77;;;2.83;;
422;SDS011;198;48.752;9.180;2023-08-12T00:03:13;9.10;;;2.70;;
422;SDS011;198;48.752;9.180;2023-08-12T00:05:39;4.60;;;2.67;;
422;SDS011;198;48.752;9.180;2023-08-12T00:08:05;15.03;;;3.17;;
422;SDS011;198;48.752;9.180;2023-08-12T00:10:31;4.43;;;2.40;;
422;SDS011;198;48.752;9.180;2023-08-12T00:12:56;5.47;;;2.93;;
422;SDS011;198;48.752;9.180;2023-08-12T00:15:22;4.47;;;3.30;;
422;SDS011;198;48.752;9.180;2023-08-12T00:17:48;4.27;;;3.10;;
422;SDS011;198;48.752;9.180;2023-08-12T00:20:13;5.73;;;3.30;;
422;SDS011;198;48.752;9.180;2023-08-12T00:22:39;5.53;;;3.17;;
422;SDS011;198;48.752;9.180;2023-08-12T00:25:05;3.90;;;2.67;;
422;SDS011;198;48.752;9.180;2023-08-12T00:27:31;5.70;;;3.47;;
422;SDS011;198;48.752;9.180;2023-08-12T00:29:57;3.27;;;2.70;;
422;SDS011;198;48.752;9.180;2023-08-12T00:32:22;5.63;;;2.90;;
422;SDS011;198;48.752;9.180;2023-08-12T00:34:48;5.10;;;2.83;;
422;SDS011;198;48.752;9.180;2023-08-12T00:37:13;4.47;;;3.23;;
422;SDS011;198;48.752;9.180;2023-08-12T00:39:39;3.27;;;2.73;;
422;SDS011;198;48.752;9.180;2023-08-12T00:42:04;4.93;;;3.20;;
422;SDS011;198;48.752;9.180;2023-08-12T00:44:30;5.73;;;3.07;;
422;SDS011;198;48.752;9.180;2023-08-12T00:46:55;5.10;;;3.60;;
422;SDS011;198;48.752;9.180;2023-08-12T00:49:22;4.87;;;2.97;;
422;SDS011;198;48.752;9.180;2023-08-12T00:51:49;4.37;;;2.87;;
422;SDS011;198;48.752;9.180;2023-08-12T00:54:15;5.70;;;3.40;;
422;SDS011;198;48.752;9.180;2023-08-12T00:56:42;7.93;;;5.30;;
422;SDS011;198;48.752;9.180;2023-08-12T00:59:08;5.87;;;3.20;;
422;SDS011;198;48.752;9.180;2023-08-12T01:01:35;3.13;;;2.80;;
422;SDS011;198;48.752;9.180;2023-08-12T01:04:03;3.73;;;2.53;;
422;SDS011;198;48.752;9.180;2023-08-12T01:06:29;5.23;;;3.20;;
422;SDS011;198;48.752;9.180;2023-08-12T01:08:54;7.83;;;3.80;;
422;SDS011;198;48.752;9.180;2023-08-12T01:11:27;5.83;;;3.20;;
422;SDS011;198;48.752;9.180;2023-08-12T01:14:12;8.30;;;4.20;;
422;SDS011;198;48.752;9.180;2023-08-12T01:16:47;8.90;;;4.63;;
422;SDS011;198;48.752;9.180;2023-08-12T01:19:28;6.13;;;3.70;;
422;SDS011;198;48.752;9.180;2023-08-12T01:22:00;6.90;;;3.27;;
422;SDS011;198;48.752;9.180;2023-08-12T01:24:27;4.33;;;3.07;;
422;SDS011;198;48.752;9.180;2023-08-12T01:27:00;8.30;;;3.83;;
422;SDS011;198;48.752;9.180;2023-08-12T01:29:26;6.33;;;3.70;;
422;SDS011;198;48.752;9.180;2023-08-12T01:31:57;5.40;;;3.90;;
422;SDS011;198;48.752;9.180;2023-08-12T01:34:32;4.80;;;3.40;;
422;SDS011;198;48.752;9.180;2023-08-12T01:37:14;9.03;;;4.77;;
422;SDS011;198;48.752;9.180;2023-08-12T01:39:48;6.30;;;3.67;;
422;SDS011;198;48.752;9.180;2023-08-12T01:42:15;5.10;;;4.07;;
422;SDS011;198;48.752;9.180;2023-08-12T01:44:43;6.27;;;3.60;;
422;SDS011;198;48.752;9.180;2023-08-12T01:47:09;5.60;;;3.50;;
422;SDS011;198;48.752;9.180;2023-08-12T01:49:34;8.60;;;4.53;;
422;SDS011;198;48.752;9.180;2023-08-12T01:52:00;5.53;;;3.73;;
422;SDS011;198;48.752;9.180;2023-08-12T01:54:25;4.90;;;3.33;;
422;SDS011;198;48.752;9.180;2023-08-12T01:56:51;5.53;;;3.80;;
422;SDS011;198;48.752;9.180;2023-08-12T01:59:16;5.30;;;3.73;;
422;SDS011;198;48.752;9.180;2023-08-12T02:01:42;4.80;;;3.27;;
422;SDS011;198;48.752;9.180;2023-08-12T02:04:07;5.03;;;3.57;;
422;SDS011;198;48.752;9.180;2023-08-12T02:06:33;14.70;;;4.60;;
422;SDS011;198;48.752;9.180;2023-08-12T02:08:58;4.70;;;3.30;;
422;SDS011;198;48.752;9.180;2023-08-12T02:11:24;6.57;;;4.10;;
422;SDS011;198;48.752;9.180;2023-08-12T02:13:49;5.73;;;3.80;;
422;SDS011;198;48.752;9.180;2023-08-12T02:16:15;6.70;;;4.90;;
422;SDS011;198;48.752;9.180;2023-08-12T02:18:41;6.83;;;4.43;;
422;SDS011;198;48.752;9.180;2023-08-12T02:21:06;8.60;;;4.23;;
422;SDS011;198;48.752;9.180;2023-08-12T02:23:32;5.10;;;3.70;;
422;SDS011;198;48.752;9.180;2023-08-12T02:25:57;6.87;;;4.30;;
422;SDS011;198;48.752;9.180;2023-08-12T02:28:23;11.70;;;4.00;;
422;SDS011;198;48.752;9.180;2023-08-12T02:30:48;5.07;;;3.37;;
422;SDS011;198;48.752;9.180;2023-08-12T02:33:14;9.77;;;3.70;;
422;SDS011;198;48.752;9.180;2023-08-12T02:35:39;10.80;;;3.73;;
422;SDS011;198;48.752;9.180;2023-08-12T02:38:05;10.10;;;3.90;;
422;SDS011;198;48.752;9.180;2023-08-12T02:40:30;5.60;;;3.47;;
422;SDS011;198;48.752;9.180;2023-08-12T02:42:56;14.13;;;4.50;;
422;SDS011;198;48.752;9.180;2023-08-12T02:45:21;6.67;;;4.27;;
422;SDS011;198;48.752;9.180;2023-08-12T02:47:47;4.80;;;3.23;;
422;SDS011;198;48.752;9.180;2023-08-12T02:50:12;7.10;;;4.00;;
422;SDS011;198;48.752;9.180;2023-08-12T02:52:38;6.03;;;4.00;;
422;SDS011;198;48.752;9.180;2023-08-12T02:55:03;11.23;;;4.57;;
422;SDS011;198;48.752;9.180;2023-08-12T02:57:29;5.90;;;3.87;;
422;SDS011;198;48.752;9.180;2023-08-12T02:59:54;4.90;;;3.40;;
422;SDS011;198;48.752;9.180;2023-08-12T03:02:20;6.87;;;3.90;;
422;SDS011;198;48.752;9.180;2023-08-12T03:04:45;5.73;;;3.60;;
422;SDS011;198;48.752;9.180;2023-08-12T03:07:11;6.47;;;3.70;;
422;SDS011;198;48.752;9.180;2023-08-12T03:09:36;6.10;;;3.60;;
422;SDS011;198;48.752;9.180;2023-08-12T03:12:02;6.17;;;3.73;;
422;SDS011;198;48.752;9.180;2023-08-12T03:14:28;8.57;;;4.30;;
422;SDS011;198;48.752;9.180;2023-08-12T03:16:55;6.63;;;3.63;;
422;SDS011;198;48.752;9.180;2023-08-12T03:19:20;7.00;;;4.10;;
422;SDS011;198;48.752;9.180;2023-08-12T03:21:46;9.30;;;4.40;;
422;SDS011;198;48.752;9.180;2023-08-12T03:24:11;8.00;;;4.73;;
422;SDS011;198;48.752;9.180;2023-08-12T03:26:37;15.23;;;4.47;;
422;SDS011;198;48.752;9.180;2023-08-12T03:29:02;7.97;;;4.30;;
422;SDS011;198;48.752;9.180;2023-08-12T03:31:28;8.47;;;4.33;;
422;SDS011;198;48.752;9.180;2023-08-12T03:33:53;6.87;;;4.27;;
422;SDS011;198;48.752;9.180;2023-08-12T03:36:19;8.30;;;4.10;;
422;SDS011;198;48.752;9.180;2023-08-12T03:38:45;6.67;;;4.53;;
422;SDS011;198;48.752;9.180;2023-08-12T03:41:10;6.80;;;3.93;;
422;SDS011;198;48.752;9.180;2023-08-12T03:43:36;6.50;;;4.37;;
422;SDS011;198;48.752;9.180;2023-08-12T03:46:02;7.87;;;4.03;;
422;SDS011;198;48.752;9.180;2023-08-12T03:48:28;6.73;;;4.00;;
422;SDS011;198;48.752;9.180;2023-08-12T03:50:53;7.00;;;4.20;;
422;SDS011;198;48.752;9.180;2023-08-12T03:53:19;10.80;;;4.40;;
422;SDS011;198;48.752;9.180;2023-08-12T03:55:44;6.43;;;4.47;;
422;SDS011;198;48.752;9.180;2023-08-12T03:58:10;7.03;;;3.40;;
422;SDS011;198;48.752;9.180;2023-08-12T04:00:39;6.83;;;4.37;;
422;SDS011;198;48.752;9.180;2023-08-12T04:03:06;7.20;;;3.90;;
422;SDS011;198;48.752;9.180;2023-08-12T04:05:32;4.60;;;4.03;;
422;SDS011;198;48.752;9.180;2023-08-12T04:07:57;9.80;;;4.63;;
422;SDS011;198;48.752;9.180;2023-08-12T04:10:23;6.40;;;4.20;;
422;SDS011;198;48.752;9.180;2023-08-12T04:12:49;6.27;;;4.37;;
422;SDS011;198;48.752;9.180;2023-08-12T04:15:15;6.00;;;4.33;;
422;SDS011;198;48.752;9.180;2023-08-12T04:17:40;9.87;;;4.50;;
422;SDS011;198;48.752;9.180;2023-08-12T04:20:06;6.07;;;3.70;;
422;SDS011;198;48.752;9.180;2023-08-12T04:22:33;6.33;;;3.80;;
422;SDS011;198;48.752;9.180;2023-08-12T04:24:59;6.60;;;3.70;;
422;SDS011;198;48.752;9.180;2023-08-12T04:27:24;7.53;;;3.77;;
422;SDS011;198;48.752;9.180;2023-08-12T04:29:50;13.67;;;4.67;;
422;SDS011;198;48.752;9.180;2023-08-12T04:32:15;4.80;;;3.77;;
422;SDS011;198;48.752;9.180;2023-08-12T04:34:41;15.27;;;4.43;;
422;SDS011;198;48.752;9.180;2023-08-12T04:37:06;6.53;;;3.80;;
422;SDS011;198;48.752;9.180;2023-08-12T04:39:32;5.67;;;3.93;;
422;SDS011;198;48.752;9.180;2023-08-12T04:41:58;8.20;;;4.43;;
422;SDS011;198;48.752;9.180;2023-08-12T04:44:23;10.43;;;4.20;;
422;SDS011;198;48.752;9.180;2023-08-12T04:46:49;5.97;;;3.57;;
422;SDS011;198;48.752;9.180;2023-08-12T04:49:15;7.30;;;3.87;;
422;SDS011;198;48.752;9.180;2023-08-12T04:51:41;5.50;;;3.93;;
422;SDS011;198;48.752;9.180;2023-08-12T04:54:06;8.17;;;4.27;;
422;SDS011;198;48.752;9.180;2023-08-12T04:56:32;8.80;;;3.70;;
422;SDS011;198;48.752;9.180;2023-08-12T04:58:58;23.63;;;4.00;;
422;SDS011;198;48.752;9.180;2023-08-12T05:01:23;5.13;;;3.50;;
422;SDS011;198;48.752;9.180;2023-08-12T05:03:49;11.37;;;4.03;;
422;SDS011;198;48.752;9.180;2023-08-12T05:06:14;6.17;;;3.70;;
422;SDS011;198;48.752;9.180;2023-08-12T05:08:40;6.83;;;3.53;;
422;SDS011;198;48.752;9.180;2023-08-12T05:11:05;6.80;;;3.90;;
422;SDS011;198;48.752;9.180;2023-08-12T05:13:31;3.77;;;3.20;;
422;SDS011;198;48.752;9.180;2023-08-12T05:15:56;5.60;;;3.77;;
422;SDS011;198;48.752;9.180;2023-08-12T05:18:22;7.00;;;3.40;;
422;SDS011;198;48.752;9.180;2023-08-12T05:20:51;6.97;;;4.00;;
422;SDS011;198;48.752;9.180;2023-08-12T05:23:17;6.40;;;4.27;;
422;SDS011;198;48.752;9.180;2023-08-12T05:25:45;5.27;;;3.73;;
422;SDS011;198;48.752;9.180;2023-08-12T05:28:11;5.17;;;4.03;;
422;SDS011;198;48.752;9.180;2023-08-12T05:30:36;5.20;;;3.90;;
422;SDS011;198;48.752;9.180;2023-08-12T05:33:03;9.30;;;4.47;;
422;SDS011;198;48.752;9.180;2023-08-12T05:35:32;4.70;;;3.43;;
422;SDS011;198;48.752;9.180;2023-08-12T05:38:01;5.87;;;3.97;;
422;SDS011;198;48.752;9.180;2023-08-12T05:40:27;5.67;;;3.80;;
422;SDS011;198;48.752;9.180;2023-08-12T05:42:52;5.37;;;3.63;;
422;SDS011;198;48.752;9.180;2023-08-12T05:45:18;6.47;;;3.83;;
422;SDS011;198;48.752;9.180;2023-08-12T05:47:44;6.37;;;4.13;;
422;SDS011;198;48.752;9.180;2023-08-12T05:50:09;4.13;;;3.60;;
422;SDS011;198;48.752;9.180;2023-08-12T05:52:35;5.30;;;4.20;;
422;SDS011;198;48.752;9.180;2023-08-12T05:55:00;9.43;;;4.60;;
422;SDS011;198;48.752;9.180;2023-08-12T05:57:26;7.57;;;4.13;;
422;SDS011;198;48.752;9.180;2023-08-12T05:59:52;8.93;;;4.50;;
422;SDS011;198;48.752;9.180;2023-08-12T06:02:17;5.73;;;3.27;;
422;SDS011;198;48.752;9.180;2023-08-12T06:04:43;6.43;;;3.77;;
422;SDS011;198;48.752;9.180;2023-08-12T06:07:09;6.17;;;4.13;;
422;SDS011;198;48.752;9.180;2023-08-12T06:09:34;7.63;;;4.27;;
422;SDS011;198;48.752;9.180;2023-08-12T06:12:00;9.13;;;4.17;;
422;SDS011;198;48.752;9.180;2023-08-12T06:14:25;7.97;;;3.87;;
422;SDS011;198;48.752;9.180;2023-08-12T06:16:51;5.20;;;3.70;;
422;SDS011;198;48.752;9.180;2023-08-12T06:19:16;4.33;;;3.10;;
422;SDS011;198;48.752;9.180;2023-08-12T06:21:42;10.57;;;3.80;;
422;SDS011;198;48.752;9.180;2023-08-12T06:24:07;4.70;;;3.37;;
422;SDS011;198;48.752;9.180;2023-08-12T06:26:33;5.40;;;3.90;;
422;SDS011;198;48.752;9.180;2023-08-12T06:28:58;6.30;;;3.70;;
422;SDS011;198;48.752;9.180;2023-08-12T06:31:24;5.47;;;4.40;;
422;SDS011;198;48.752;9.180;2023-08-12T06:33:49;7.67;;;4.10;;
422;SDS011;198;48.752;9.180;2023-08-12T06:36:15;8.77;;;5.27;;
422;SDS011;198;48.752;9.180;2023-08-12T06:38:40;11.23;;;5.40;;
422;SDS011;198;48.752;9.180;2023-08-12T06:41:06;11.13;;;5.10;;
422;SDS011;198;48.752;9.180;2023-08-12T06:43:31;10.80;;;6.43;;
422;SDS011;198;48.752;9.180;2023-08-12T06:45:57;7.63;;;4.50;;
422;SDS011;198;48.752;9.180;2023-08-12T06:48:22;7.13;;;4.60;;
422;SDS011;198;48.752;9.180;2023-08-12T06:50:52;9.03;;;4.57;;
422;SDS011;198;48.752;9.180;2023-08-12T06:53:21;5.23;;;4.23;;
422;SDS011;198;48.752;9.180;2023-08-12T06:55:47;8.33;;;4.60;;
422;SDS011;198;48.752;9.180;2023-08-12T06:58:13;5.40;;;3.60;;
422;SDS011;198;48.752;9.180;2023-08-12T07:00:42;5.20;;;3.20;;
422;SDS011;198;48.752;9.180;2023-08-12T07:03:07;7.73;;;4.83;;
422;SDS011;198;48.752;9.180;2023-08-12T07:05:33;7.27;;;3.30;;
422;SDS011;198;48.752;9.180;2023-08-12T07:07:59;7.70;;;4.63;;
422;SDS011;198;48.752;9.180;2023-08-12T07:10:24;6.90;;;3.67;;
422;SDS011;198;48.752;9.180;2023-08-12T07:12:50;5.50;;;4.30;;
422;SDS011;198;48.752;9.180;2023-08-12T07:15:15;5.90;;;3.53;;
422;SDS011;198;48.752;9.180;2023-08-12T07:17:41;4.50;;;3.23;;
422;SDS011;198;48.752;9.180;2023-08-12T07:20:07;8.40;;;4.50;;
422;SDS011;198;48.752;9.180;2023-08-12T07:22:32;6.63;;;3.77;;
422;SDS011;198;48.752;9.180;2023-08-12T07:24:58;6.10;;;4.47;;
422;SDS011;198;48.752;9.180;2023-08-12T07:27:25;7.67;;;3.73;;
422;SDS011;198;48.752;9.180;2023-08-12T07:29:51;10.83;;;4.47;;
422;SDS011;198;48.752;9.180;2023-08-12T07:32:16;12.63;;;4.50;;
422;SDS011;198;48.752;9.180;2023-08-12T07:34:42;9.27;;;4.67;;
422;SDS011;198;48.752;9.180;2023-08-12T07:37:07;8.40;;;4.77;;
422;SDS011;198;48.752;9.180;2023-08-12T07:39:33;7.63;;;4.37;;
422;SDS011;198;48.752;9.180;2023-08-12T07:41:58;7.33;;;3.77;;
422;SDS011;198;48.752;9.180;2023-08-12T07:44:24;4.97;;;3.57;;
422;SDS011;198;48.752;9.180;2023-08-12T07:46:49;6.20;;;4.10;;
422;SDS011;198;48.752;9.180;2023-08-12T07:49:15;10.17;;;3.93;;
422;SDS011;198;48.752;9.180;2023-08-12T07:51:41;6.67;;;4.37;;
422;SDS011;198;48.752;9.180;2023-08-12T07:54:07;10.10;;;4.30;;
422;SDS011;198;48.752;9.180;2023-08-12T07:56:32;12.80;;;4.83;;
422;SDS011;198;48.752;9.180;2023-08-12T07:58:59;8.37;;;4.60;;
422;SDS011;198;48.752;9.180;2023-08-12T08:01:24;8.40;;;3.90;;
422;SDS011;198;48.752;9.180;2023-08-12T08:03:50;6.50;;;4.43;;
422;SDS011;198;48.752;9.180;2023-08-12T08:06:15;7.70;;;3.63;;
422;SDS011;198;48.752;9.180;2023-08-12T08:08:41;4.93;;;4.07;;
422;SDS011;198;48.752;9.180;2023-08-12T08:11:06;8.60;;;4.00;;
422;SDS011;198;48.752;9.180;2023-08-12T08:13:32;5.20;;;3.50;;
422;SDS011;198;48.752;9.180;2023-08-12T08:15:57;6.63;;;3.87;;
422;SDS011;198;48.752;9.180;2023-08-12T08:18:23;5.47;;;4.23;;
422;SDS011;198;48.752;9.180;2023-08-12T08:20:48;5.53;;;3.73;;
422;SDS011;198;48.752;9.180;2023-08-12T08:23:14;7.10;;;4.20;;
422;SDS011;198;48.752;9.180;2023-08-12T08:25:39;4.20;;;3.33;;
422;SDS011;198;48.752;9.180;2023-08-12T08:28:05;7.10;;;3.87;;
422;SDS011;198;48.752;9.180;2023-08-12T08:30:30;5.23;;;3.67;;
422;SDS011;198;48.752;9.180;2023-08-12T08:32:56;5.20;;;3.33;;
422;SDS011;198;48.752;9.180;2023-08-12T08:35:21;6.20;;;3.40;;
422;SDS011;198;48.752;9.180;2023-08-12T08:37:47;5.13;;;3.50;;
422;SDS011;198;48.752;9.180;2023-08-12T08:40:12;8.50;;;3.97;;
422;SDS011;198;48.752;9.180;2023-08-12T08:42:38;5.00;;;3.43;;
422;SDS011;198;48.752;9.180;2023-08-12T08:45:06;3.83;;;3.30;;
422;SDS011;198;48.752;9.180;2023-08-12T08:47:37;5.50;;;3.10;;
422;SDS011;198;48.752;9.180;2023-08-12T08:50:04;4.23;;;3.17;;
422;SDS011;198;48.752;9.180;2023-08-12T08:52:30;5.10;;;3.23;;
422;SDS011;198;48.752;9.180;2023-08-12T08:54:57;5.03;;;2.90;;
422;SDS011;198;48.752;9.180;2023-08-12T08:57:24;4.07;;;3.10;;
422;SDS011;198;48.752;9.180;2023-08-12T08:59:53;4.57;;;3.03;;
422;SDS011;198;48.752;9.180;2023-08-12T09:02:18;5.40;;;3.87;;
422;SDS011;198;48.752;9.180;2023-08-12T09:04:44;3.53;;;2.80;;
422;SDS011;198;48.752;9.180;2023-08-12T09:07:11;6.80;;;2.80;;
422;SDS011;198;48.752;9.180;2023-08-12T09:09:38;3.67;;;2.93;;
422;SDS011;198;48.752;9.180;2023-08-12T09:12:06;6.17;;;3.33;;
422;SDS011;198;48.752;9.180;2023-08-12T09:14:33;5.10;;;2.53;;
422;SDS011;198;48.752;9.180;2023-08-12T09:16:59;4.70;;;3.17;;
422;SDS011;198;48.752;9.180;2023-08-12T09:19:25;3.60;;;2.73;;
422;SDS011;198;48.752;9.180;2023-08-12T09:21:51;2.67;;;2.27;;
422;SDS011;198;48.752;9.180;2023-08-12T09:24:23;4.47;;;2.30;;
422;SDS011;198;48.752;9.180;2023-08-12T09:26:52;9.53;;;3.40;;
422;SDS011;198;48.752;9.180;2023-08-12T09:29:21;3.17;;;2.60;;
422;SDS011;198;48.752;9.180;2023-08-12T09:31:49;2.60;;;2.10;;
422;SDS011;198;48.752;9.180;2023-08-12T09:34:15;8.77;;;2.30;;
422;SDS011;198;48.752;9.180;2023-08-12T09:36:43;2.63;;;2.20;;
422;SDS011;198;48.752;9.180;2023-08-12T09:39:09;3.70;;;2.40;;
422;SDS011;198;48.752;9.180;2023-08-12T09:41:34;2.97;;;2.07;;
422;SDS011;198;48.752;9.180;2023-08-12T09:44:01;2.47;;;2.20;;
422;SDS011;198;48.752;9.180;2023-08-12T09:46:27;4.57;;;2.10;;
422;SDS011;198;48.752;9.180;2023-08-12T09:48:53;3.53;;;2.40;;
422;SDS011;198;48.752;9.180;2023-08-12T09:51:19;4.40;;;2.33;;
422;SDS011;198;48.752;9.180;2023-08-12T09:53:47;4.50;;;2.47;;
422;SDS011;198;48.752;9.180;2023-08-12T09:56:17;2.63;;;2.30;;
422;SDS011;198;48.752;9.180;2023-08-12T09:58:46;2.90;;;2.00;;
422;SDS011;198;48.752;9.180;2023-08-12T10:01:13;9.33;;;3.00;;
422;SDS011;198;48.752;9.180;2023-08-12T10:03:43;2.40;;;1.80;;
422;SDS011;198;48.752;9.180;2023-08-12T10:06:13;2.67;;;2.50;;
422;SDS011;198;48.752;9.180;2023-08-12T10:08:40;3.33;;;2.10;;
422;SDS011;198;48.752;9.180;2023-08-12T10:11:06;3.17;;;2.50;;
422;SDS011;198;48.752;9.180;2023-08-12T10:13:33;4.40;;;2.03;;
422;SDS011;198;48.752;9.180;2023-08-12T10:15:59;3.33;;;2.57;;
422;SDS011;198;48.752;9.180;2023-08-12T10:18:25;3.57;;;2.73;;
422;SDS011;198;48.752;9.180;2023-08-12T10:20:53;5.33;;;2.40;;
422;SDS011;198;48.752;9.180;2023-08-12T10:23:20;3.47;;;2.40;;
422;SDS011;198;48.752;9.180;2023-08-12T10:25:46;7.93;;;3.50;;
422;SDS011;198;48.752;9.180;2023-08-12T10:28:14;2.40;;;2.30;;
422;SDS011;198;48.752;9.180;2023-08-12T10:30:40;4.43;;;2.53;;
422;SDS011;198;48.752;9.180;2023-08-12T10:33:07;6.33;;;2.27;;
422;SDS011;198;48.752;9.180;2023-08-12T10:35:43;3.93;;;2.50;;
422;SDS011;198;48.752;9.180;2023-08-12T10:38:11;4.30;;;2.63;;
422;SDS011;198;48.752;9.180;2023-08-12T10:40:38;5.80;;;2.50;;
422;SDS011;198;48.752;9.180;2023-08-12T10:43:04;3.10;;;2.50;;
422;SDS011;198;48.752;9.180;2023-08-12T10:48:10;3.53;;;2.30;;
422;SDS011;198;48.752;9.180;2023-08-12T10:50:54;3.97;;;2.60;;
422;SDS011;198;48.752;9.180;2023-08-12T10:55:49;3.30;;;2.53;;
422;SDS011;198;48.752;9.180;2023-08-12T10:58:23;3.40;;;2.10;;
422;SDS011;198;48.752;9.180;2023-08-12T11:00:53;4.13;;;2.53;;
422;SDS011;198;48.752;9.180;2023-08-12T11:03:20;5.20;;;2.53;;
422;SDS011;198;48.752;9.180;2023-08-12T11:05:46;4.00;;;2.57;;
422;SDS011;198;48.752;9.180;2023-08-12T11:08:12;3.40;;;2.30;;
422;SDS011;198;48.752;9.180;2023-08-12T11:10:38;3.10;;;2.23;;
422;SDS011;198;48.752;9.180;2023-08-12T11:13:04;2.50;;;2.30;;
422;SDS011;198;48.752;9.180;2023-08-12T11:15:33;4.23;;;2.90;;
422;SDS011;198;48.752;9.180;2023-08-12T11:18:03;4.10;;;2.13;;
422;SDS011;198;48.752;9.180;2023-08-12T11:20:33;5.87;;;2.60;;
422;SDS011;198;48.752;9.180;2023-08-12T11:22:59;2.20;;;1.97;;
422;SDS011;198;48.752;9.180;2023-08-12T11:25:25;4.47;;;2.30;;
422;SDS011;198;48.752;9.180;2023-08-12T11:27:53;2.13;;;1.80;;
422;SDS011;198;48.752;9.180;2023-08-12T11:30:19;5.23;;;2.20;;
422;SDS011;198;48.752;9.180;2023-08-12T11:32:47;3.47;;;2.30;;
422;SDS011;198;48.752;9.180;2023-08-12T11:35:14;2.93;;;2.47;;
422;SDS011;198;48.752;9.180;2023-08-12T11:37:41;2.63;;;1.70;;
422;SDS011;198;48.752;9.180;2023-08-12T11:40:10;3.87;;;2.43;;
422;SDS011;198;48.752;9.180;2023-08-12T11:42:40;3.53;;;2.20;;
422;SDS011;198;48.752;9.180;2023-08-12T11:45:06;2.63;;;2.30;;
422;SDS011;198;48.752;9.180;2023-08-12T11:47:33;3.07;;;2.30;;
422;SDS011;198;48.752;9.180;2023-08-12T11:50:03;3.57;;;2.10;;
422;SDS011;198;48.752;9.180;2023-08-12T11:52:31;7.93;;;2.00;;
422;SDS011;198;48.752;9.180;2023-08-12T11:54:57;15.48;;;2.10;;
422;SDS011;198;48.752;9.180;2023-08-12T11:57:23;2.83;;;2.17;;
422;SDS011;198;48.752;9.180;2023-08-12T11:59:53;2.20;;;1.75;;
422;SDS011;198;48.752;9.180;2023-08-12T12:02:25;5.45;;;1.98;;
422;SDS011;198;48.752;9.180;2023-08-12T12:04:54;5.27;;;1.90;;
422;SDS011;198;48.752;9.180;2023-08-12T12:07:23;3.43;;;2.20;;
422;SDS011;198;48.752;9.180;2023-08-12T12:09:54;7.93;;;2.30;;
422;SDS011;198;48.752;9.180;2023-08-12T12:12:23;10.33;;;2.47;;
422;SDS011;198;48.752;9.180;2023-08-12T12:14:52;2.60;;;1.70;;
422;SDS011;198;48.752;9.180;2023-08-12T12:17:20;9.93;;;3.10;;
422;SDS011;198;48.752;9.180;2023-08-12T12:19:46;4.57;;;2.90;;
422;SDS011;198;48.752;9.180;2023-08-12T12:22:12;4.57;;;3.20;;
422;SDS011;198;48.752;9.180;2023-08-12T12:24:43;8.07;;;3.90;;
422;SDS011;198;48.752;9.180;2023-08-12T12:27:13;8.20;;;3.77;;
422;SDS011;198;48.752;9.180;2023-08-12T12:29:39;4.70;;;3.60;;
422;SDS011;198;48.752;9.180;2023-08-12T12:32:05;5.63;;;3.20;;
422;SDS011;198;48.752;9.180;2023-08-12T12:34:30;4.40;;;3.40;;
422;SDS011;198;48.752;9.180;2023-08-12T12:36:56;6.60;;;3.33;;
422;SDS011;198;48.752;9.180;2023-08-12T12:39:21;9.43;;;3.10;;
422;SDS011;198;48.752;9.180;2023-08-12T12:41:50;6.53;;;3.80;;
422;SDS011;198;48.752;9.180;2023-08-12T12:44:15;5.77;;;3.40;;
422;SDS011;198;48.752;9.180;2023-08-12T12:46:41;12.43;;;4.00;;
422;SDS011;198;48.752;9.180;2023-08-12T12:49:06;8.33;;;3.33;;
422;SDS011;198;48.752;9.180;2023-08-12T12:51:32;3.27;;;2.77;;
422;SDS011;198;48.752;9.180;2023-08-12T12:53:57;3.73;;;2.83;;
422;SDS011;198;48.752;9.180;2023-08-12T12:56:23;7.30;;;3.70;;
422;SDS011;198;48.752;9.180;2023-08-12T12:58:48;9.17;;;4.33;;
422;SDS011;198;48.752;9.180;2023-08-12T13:01:14;7.20;;;4.13;;
422;SDS011;198;48.752;9.180;2023-08-12T13:03:39;7.17;;;4.53;;
422;SDS011;198;48.752;9.180;2023-08-12T13:06:05;8.33;;;4.20;;
422;SDS011;198;48.752;9.180;2023-08-12T13:08:31;5.00;;;3.80;;
422;SDS011;198;48.752;9.180;2023-08-12T13:10:56;6.20;;;3.40;;
422;SDS011;198;48.752;9.180;2023-08-12T13:13:22;6.43;;;3.90;;
422;SDS011;198;48.752;9.180;2023-08-12T13:15:48;5.67;;;4.43;;
422;SDS011;198;48.752;9.180;2023-08-12T13:18:14;6.90;;;4.17;;
422;SDS011;198;48.752;9.180;2023-08-12T13:20:39;6.77;;;5.00;;
422;SDS011;198;48.752;9.180;2023-08-12T13:23:05;14.33;;;5.00;;
422;SDS011;198;48.752;9.180;2023-08-12T13:25:33;5.13;;;4.13;;
422;SDS011;198;48.752;9.180;2023-08-12T13:28:02;8.73;;;4.43;;
422;SDS011;198;48.752;9.180;2023-08-12T13:30:29;10.20;;;4.07;;
422;SDS011;198;48.752;9.180;2023-08-12T13:32:54;6.10;;;4.00;;
422;SDS011;198;48.752;9.180;2023-08-12T13:35:21;10.27;;;4.37;;
422;SDS011;198;48.752;9.180;2023-08-12T13:37:47;6.13;;;4.10;;
422;SDS011;198;48.752;9.180;2023-08-12T13:40:13;11.10;;;4.30;;
422;SDS011;198;48.752;9.180;2023-08-12T13:42:40;9.00;;;4.00;;
422;SDS011;198;48.752;9.180;2023-08-12T13:45:09;7.70;;;4.77;;
422;SDS011;198;48.752;9.180;2023-08-12T13:47:36;7.50;;;4.00;;
422;SDS011;198;48.752;9.180;2023-08-12T13:50:01;8.80;;;2.83;;
422;SDS011;198;48.752;9.180;2023-08-12T13:52:27;5.90;;;3.10;;
422;SDS011;198;48.752;9.180;2023-08-12T13:54:52;13.47;;;2.93;;
422;SDS011;198;48.752;9.180;2023-08-12T13:57:18;6.70;;;2.30;;
422;SDS011;198;48.752;9.180;2023-08-12T13:59:43;3.70;;;2.33;;
422;SDS011;198;48.752;9.180;2023-08-12T14:02:10;3.97;;;2.20;;
422;SDS011;198;48.752;9.180;2023-08-12T14:04:35;10.27;;;2.90;;
422;SDS011;198;48.752;9.180;2023-08-12T14:07:02;3.23;;;2.13;;
422;SDS011;198;48.752;9.180;2023-08-12T14:09:28;1.83;;;1.70;;
422;SDS011;198;48.752;9.180;2023-08-12T14:11:54;2.20;;;2.07;;
422;SDS011;198;48.752;9.180;2023-08-12T14:14:19;5.10;;;1.70;;
422;SDS011;198;48.752;9.180;2023-08-12T14:16:45;5.10;;;2.27;;
422;SDS011;198;48.752;9.180;2023-08-12T14:19:10;4.70;;;2.20;;
422;SDS011;198;48.752;9.180;2023-08-12T14:21:36;3.53;;;2.33;;
422;SDS011;198;48.752;9.180;2023-08-12T14:24:01;3.13;;;1.92;;
422;SDS011;198;48.752;9.180;2023-08-12T14:26:27;2.03;;;1.70;;
422;SDS011;198;48.752;9.180;2023-08-12T14:28:52;2.47;;;1.90;;
422;SDS011;198;48.752;9.180;2023-08-12T14:31:18;4.40;;;2.00;;
422;SDS011;198;48.752;9.180;2023-08-12T14:33:44;4.32;;;2.00;;
422;SDS011;198;48.752;9.180;2023-08-12T14:36:09;5.10;;;1.75;;
422;SDS011;198;48.752;9.180;2023-08-12T14:38:35;2.97;;;1.67;;
422;SDS011;198;48.752;9.180;2023-08-12T14:41:00;1.70;;;1.48;;
422;SDS011;198;48.752;9.180;2023-08-12T14:43:26;2.10;;;1.55;;
422;SDS011;198;48.752;9.180;2023-08-12T14:45:52;2.22;;;1.80;;
422;SDS011;198;48.752;9.180;2023-08-12T14:48:17;1.80;;;1.58;;
422;SDS011;198;48.752;9.180;2023-08-12T14:50:43;1.52;;;1.45;;
422;SDS011;198;48.752;9.180;2023-08-12T14:53:09;1.35;;;1.25;;
422;SDS011;198;48.752;9.180;2023-08-12T14:55:35;5.50;;;1.70;;
422;SDS011;198;48.752;9.180;2023-08-12T14:58:00;1.85;;;1.60;;
422;SDS011;198;48.752;9.180;2023-08-12T15:00:26;2.90;;;1.58;;
422;SDS011;198;48.752;9.180;2023-08-12T15:02:52;1.90;;;1.75;;
422;SDS011;198;48.752;9.180;2023-08-12T15:05:17;3.88;;;1.63;;
422;SDS011;198;48.752;9.180;2023-08-12T15:07:43;1.67;;;1.50;;
422;SDS011;198;48.752;9.180;2023-08-12T15:10:08;2.80;;;1.30;;
422;SDS011;198;48.752;9.180;2023-08-12T15:12:34;2.40;;;1.73;;
422;SDS011;198;48.752;9.180;2023-08-12T15:15:00;1.23;;;1.13;;
422;SDS011;198;48.752;9.180;2023-08-12T15:17:26;1.73;;;1.60;;
422;SDS011;198;48.752;9.180;2023-08-12T15:19:51;3.22;;;1.30;;
422;SDS011;198;48.752;9.180;2023-08-12T15:22:17;2.75;;;1.15;;
422;SDS011;198;48.752;9.180;2023-08-12T15:24:42;3.30;;;1.55;;
422;SDS011;198;48.752;9.180;2023-08-12T15:27:08;2.30;;;1.73;;
422;SDS011;198;48.752;9.180;2023-08-12T15:29:34;2.77;;;1.80;;
422;SDS011;198;48.752;9.180;2023-08-12T15:31:59;8.93;;;2.27;;
422;SDS011;198;48.752;9.180;2023-08-12T15:34:25;2.90;;;1.50;;
422;SDS011;198;48.752;9.180;2023-08-12T15:36:51;3.50;;;1.43;;
422;SDS011;198;48.752;9.180;2023-08-12T15:39:17;1.93;;;1.63;;
422;SDS011;198;48.752;9.180;2023-08-12T15:41:43;3.30;;;1.80;;
422;SDS011;198;48.752;9.180;2023-08-12T15:44:12;2.60;;;1.97;;